sensor_id;sensor_type;location;lat;lon;timestamp;P1;durP1;ratioP1;P2;durP2;ratioP2
10248;SDS011;5169;50.560;9.714;2023-07-29T00:01:44;50.87;;;47.53;;
10248;SDS011;5169;50.560;9.714;2023-07-29T00:04:12;51.43;;;47.90;;
10248;SDS011;5169;50.560;9.714;2023-07-29T00:06:45;49.03;;;45.97;;
10248;SDS011;5169;50.560;9.714;2023-07-29T00:09:11;50.00;;;46.73;;
10248;SDS011;5169;50.560;9.714;2023-07-29T00:11:37;56.27;;;52.23;;
10248;SDS011;5169;50.560;9.714;2023-07-29T00:14:03;47.57;;;44.40;;
10248;SDS011;5169;50.560;9.714;2023-07-29T00:16:28;50.87;;;47.27;;
10248;SDS011;5169;50.560;9.714;2023-07-29T00:18:54;47.80;;;44.70;;
10248;SDS011;5169;50.560;9.714;2023-07-29T00:21:22;48.90;;;45.63;;
10248;SDS011;5169;50.560;9.714;2023-07-29T00:23:49;46.23;;;43.10;;
10248;SDS011;5169;50.560;9.714;2023-07-29T00:26:15;56.47;;;52.63;;
10248;SDS011;5169;50.560;9.714;2023-07-29T00:28:41;55.70;;;51.87;;
10248;SDS011;5169;50.560;9.714;2023-07-29T00:31:06;50.10;;;46.73;;
10248;SDS011;5169;50.560;9.714;2023-07-29T00:33:32;49.23;;;45.93;;
10248;SDS011;5169;50.560;9.714;2023-07-29T00:35:57;55.00;;;51.10;;
10248;SDS011;5169;50.560;9.714;2023-07-29T00:38:26;51.73;;;48.17;;
10248;SDS011;5169;50.560;9.714;2023-07-29T00:40:52;55.27;;;51.33;;
10248;SDS011;5169;50.560;9.714;2023-07-29T00:43:20;55.57;;;51.67;;
10248;SDS011;5169;50.560;9.714;2023-07-29T00:45:45;48.30;;;45.03;;
10248;SDS011;5169;50.560;9.714;2023-07-29T00:48:16;42.00;;;39.20;;
10248;SDS011;5169;50.560;9.714;2023-07-29T00:50:43;49.87;;;46.53;;
10248;SDS011;5169;50.560;9.714;2023-07-29T00:53:12;46.27;;;43.30;;
10248;SDS011;5169;50.560;9.714;2023-07-29T00:55:37;56.17;;;52.17;;
10248;SDS011;5169;50.560;9.714;2023-07-29T00:58:07;51.53;;;47.87;;
10248;SDS011;5169;50.560;9.714;2023-07-29T01:00:33;48.87;;;45.53;;
10248;SDS011;5169;50.560;9.714;2023-07-29T01:02:59;55.00;;;51.00;;
10248;SDS011;5169;50.560;9.714;2023-07-29T01:05:25;49.80;;;46.47;;
10248;SDS011;5169;50.560;9.714;2023-07-29T01:08:12;56.47;;;52.47;;
10248;SDS011;5169;50.560;9.714;2023-07-29T01:10:58;60.23;;;55.67;;
10248;SDS011;5169;50.560;9.714;2023-07-29T01:13:37;63.23;;;58.30;;
10248;SDS011;5169;50.560;9.714;2023-07-29T01:16:21;48.80;;;45.27;;
10248;SDS011;5169;50.560;9.714;2023-07-29T01:18:54;45.97;;;42.83;;
10248;SDS011;5169;50.560;9.714;2023-07-29T01:21:20;56.40;;;52.17;;
10248;SDS011;5169;50.560;9.714;2023-07-29T01:23:47;59.33;;;55.03;;
10248;SDS011;5169;50.560;9.714;2023-07-29T01:26:14;59.03;;;54.63;;
10248;SDS011;5169;50.560;9.714;2023-07-29T01:28:40;54.73;;;50.83;;
10248;SDS011;5169;50.560;9.714;2023-07-29T01:31:41;42.87;;;40.00;;
10248;SDS011;5169;50.560;9.714;2023-07-29T01:34:02;44.47;;;41.63;;
10248;SDS011;5169;50.560;9.714;2023-07-29T01:36:34;53.57;;;49.73;;
10248;SDS011;5169;50.560;9.714;2023-07-29T01:39:06;48.00;;;44.83;;
10248;SDS011;5169;50.560;9.714;2023-07-29T01:41:36;50.53;;;47.17;;
10248;SDS011;5169;50.560;9.714;2023-07-29T01:44:04;53.30;;;49.73;;
10248;SDS011;5169;50.560;9.714;2023-07-29T01:46:32;44.70;;;41.77;;
10248;SDS011;5169;50.560;9.714;2023-07-29T01:48:59;55.13;;;51.37;;
10248;SDS011;5169;50.560;9.714;2023-07-29T01:51:24;52.87;;;49.23;;
10248;SDS011;5169;50.560;9.714;2023-07-29T01:53:50;47.97;;;44.77;;
10248;SDS011;5169;50.560;9.714;2023-07-29T01:56:18;57.33;;;53.30;;
10248;SDS011;5169;50.560;9.714;2023-07-29T01:58:43;48.27;;;45.07;;
10248;SDS011;5169;50.560;9.714;2023-07-29T02:01:11;57.07;;;52.97;;
10248;SDS011;5169;50.560;9.714;2023-07-29T02:03:40;45.67;;;42.70;;
10248;SDS011;5169;50.560;9.714;2023-07-29T02:06:08;52.10;;;48.57;;
10248;SDS011;5169;50.560;9.714;2023-07-29T02:08:34;53.90;;;50.10;;
10248;SDS011;5169;50.560;9.714;2023-07-29T02:11:01;51.10;;;47.67;;
10248;SDS011;5169;50.560;9.714;2023-07-29T02:13:29;51.70;;;48.07;;
10248;SDS011;5169;50.560;9.714;2023-07-29T02:15:57;53.23;;;49.67;;
10248;SDS011;5169;50.560;9.714;2023-07-29T02:18:27;54.53;;;50.83;;
10248;SDS011;5169;50.560;9.714;2023-07-29T02:20:55;48.07;;;44.87;;
10248;SDS011;5169;50.560;9.714;2023-07-29T02:23:21;47.03;;;44.03;;
10248;SDS011;5169;50.560;9.714;2023-07-29T02:25:46;45.23;;;42.40;;
10248;SDS011;5169;50.560;9.714;2023-07-29T02:28:12;47.07;;;43.97;;
10248;SDS011;5169;50.560;9.714;2023-07-29T02:30:41;34.43;;;32.47;;
10248;SDS011;5169;50.560;9.714;2023-07-29T02:33:09;32.63;;;30.70;;
10248;SDS011;5169;50.560;9.714;2023-07-29T02:35:35;46.10;;;43.20;;
10248;SDS011;5169;50.560;9.714;2023-07-29T02:38:02;45.10;;;42.33;;
10248;SDS011;5169;50.560;9.714;2023-07-29T02:40:28;42.53;;;39.90;;
10248;SDS011;5169;50.560;9.714;2023-07-29T02:42:56;33.73;;;31.80;;
10248;SDS011;5169;50.560;9.714;2023-07-29T02:45:22;44.70;;;41.87;;
10248;SDS011;5169;50.560;9.714;2023-07-29T02:47:48;44.43;;;41.63;;
10248;SDS011;5169;50.560;9.714;2023-07-29T02:50:13;44.57;;;41.80;;
10248;SDS011;5169;50.560;9.714;2023-07-29T02:52:41;37.90;;;35.67;;
10248;SDS011;5169;50.560;9.714;2023-07-29T02:55:06;46.07;;;43.23;;
10248;SDS011;5169;50.560;9.714;2023-07-29T02:57:32;33.70;;;31.73;;
10248;SDS011;5169;50.560;9.714;2023-07-29T02:59:58;43.60;;;40.87;;
10248;SDS011;5169;50.560;9.714;2023-07-29T03:02:23;39.80;;;37.37;;
10248;SDS011;5169;50.560;9.714;2023-07-29T03:04:51;31.97;;;30.00;;
10248;SDS011;5169;50.560;9.714;2023-07-29T03:07:19;40.03;;;37.43;;
10248;SDS011;5169;50.560;9.714;2023-07-29T03:09:45;37.37;;;35.17;;
10248;SDS011;5169;50.560;9.714;2023-07-29T03:12:11;42.30;;;39.60;;
10248;SDS011;5169;50.560;9.714;2023-07-29T03:14:36;41.03;;;38.50;;
10248;SDS011;5169;50.560;9.714;2023-07-29T03:17:02;44.93;;;42.20;;
10248;SDS011;5169;50.560;9.714;2023-07-29T03:19:29;43.37;;;40.53;;
10248;SDS011;5169;50.560;9.714;2023-07-29T03:21:55;46.87;;;43.97;;
10248;SDS011;5169;50.560;9.714;2023-07-29T03:24:20;49.23;;;46.07;;
10248;SDS011;5169;50.560;9.714;2023-07-29T03:26:46;42.07;;;39.43;;
10248;SDS011;5169;50.560;9.714;2023-07-29T03:29:14;53.00;;;49.50;;
10248;SDS011;5169;50.560;9.714;2023-07-29T03:31:42;49.47;;;46.23;;
10248;SDS011;5169;50.560;9.714;2023-07-29T03:34:07;55.37;;;51.50;;
10248;SDS011;5169;50.560;9.714;2023-07-29T03:36:35;56.07;;;52.27;;
10248;SDS011;5169;50.560;9.714;2023-07-29T03:39:00;49.17;;;45.80;;
10248;SDS011;5169;50.560;9.714;2023-07-29T03:41:28;48.03;;;44.90;;
10248;SDS011;5169;50.560;9.714;2023-07-29T03:43:54;51.57;;;47.97;;
10248;SDS011;5169;50.560;9.714;2023-07-29T03:46:19;50.97;;;47.60;;
10248;SDS011;5169;50.560;9.714;2023-07-29T03:48:47;50.80;;;47.17;;
10248;SDS011;5169;50.560;9.714;2023-07-29T03:51:13;50.57;;;46.83;;
10248;SDS011;5169;50.560;9.714;2023-07-29T03:53:38;46.57;;;43.60;;
10248;SDS011;5169;50.560;9.714;2023-07-29T03:56:06;50.43;;;47.03;;
10248;SDS011;5169;50.560;9.714;2023-07-29T03:58:32;47.07;;;44.00;;
10248;SDS011;5169;50.560;9.714;2023-07-29T04:01:00;38.97;;;36.60;;
10248;SDS011;5169;50.560;9.714;2023-07-29T04:03:25;44.67;;;41.70;;
10248;SDS011;5169;50.560;9.714;2023-07-29T04:05:53;45.00;;;42.10;;
10248;SDS011;5169;50.560;9.714;2023-07-29T04:08:19;42.10;;;39.30;;
10248;SDS011;5169;50.560;9.714;2023-07-29T04:10:44;47.83;;;44.60;;
10248;SDS011;5169;50.560;9.714;2023-07-29T04:13:10;39.63;;;37.27;;
10248;SDS011;5169;50.560;9.714;2023-07-29T04:15:36;42.80;;;39.97;;
10248;SDS011;5169;50.560;9.714;2023-07-29T04:18:01;41.17;;;38.47;;
10248;SDS011;5169;50.560;9.714;2023-07-29T04:20:27;48.83;;;45.60;;
10248;SDS011;5169;50.560;9.714;2023-07-29T04:22:52;40.33;;;37.83;;
10248;SDS011;5169;50.560;9.714;2023-07-29T04:25:18;45.93;;;42.93;;
10248;SDS011;5169;50.560;9.714;2023-07-29T04:27:44;49.60;;;46.30;;
10248;SDS011;5169;50.560;9.714;2023-07-29T04:30:09;45.73;;;42.63;;
10248;SDS011;5169;50.560;9.714;2023-07-29T04:32:35;46.63;;;43.63;;
10248;SDS011;5169;50.560;9.714;2023-07-29T04:35:01;40.90;;;38.37;;
10248;SDS011;5169;50.560;9.714;2023-07-29T04:37:26;48.20;;;45.00;;
10248;SDS011;5169;50.560;9.714;2023-07-29T04:39:54;47.80;;;44.70;;
10248;SDS011;5169;50.560;9.714;2023-07-29T04:42:20;52.07;;;48.57;;
10248;SDS011;5169;50.560;9.714;2023-07-29T04:44:45;41.10;;;38.57;;
10248;SDS011;5169;50.560;9.714;2023-07-29T04:47:11;47.40;;;44.20;;
10248;SDS011;5169;50.560;9.714;2023-07-29T04:49:36;50.97;;;47.57;;
10248;SDS011;5169;50.560;9.714;2023-07-29T04:52:09;43.20;;;40.33;;
10248;SDS011;5169;50.560;9.714;2023-07-29T04:54:35;48.37;;;45.20;;
10248;SDS011;5169;50.560;9.714;2023-07-29T04:57:00;52.40;;;48.90;;
10248;SDS011;5169;50.560;9.714;2023-07-29T04:59:28;59.00;;;54.80;;
10248;SDS011;5169;50.560;9.714;2023-07-29T05:01:54;52.63;;;48.93;;
10248;SDS011;5169;50.560;9.714;2023-07-29T05:04:19;51.97;;;48.40;;
10248;SDS011;5169;50.560;9.714;2023-07-29T05:06:45;47.43;;;44.37;;
10248;SDS011;5169;50.560;9.714;2023-07-29T05:09:16;49.40;;;46.17;;
10248;SDS011;5169;50.560;9.714;2023-07-29T05:11:43;54.00;;;50.23;;
10248;SDS011;5169;50.560;9.714;2023-07-29T05:14:16;57.70;;;53.67;;
10248;SDS011;5169;50.560;9.714;2023-07-29T05:16:42;60.80;;;56.40;;
10248;SDS011;5169;50.560;9.714;2023-07-29T05:19:08;53.73;;;49.90;;
10248;SDS011;5169;50.560;9.714;2023-07-29T05:21:37;49.40;;;46.03;;
10248;SDS011;5169;50.560;9.714;2023-07-29T05:24:06;60.97;;;56.63;;
10248;SDS011;5169;50.560;9.714;2023-07-29T05:26:31;47.70;;;44.50;;
10248;SDS011;5169;50.560;9.714;2023-07-29T05:28:59;63.30;;;58.80;;
10248;SDS011;5169;50.560;9.714;2023-07-29T05:31:25;64.93;;;60.03;;
10248;SDS011;5169;50.560;9.714;2023-07-29T05:33:51;56.60;;;52.60;;
10248;SDS011;5169;50.560;9.714;2023-07-29T05:36:16;47.30;;;44.27;;
10248;SDS011;5169;50.560;9.714;2023-07-29T05:38:44;58.13;;;54.13;;
10248;SDS011;5169;50.560;9.714;2023-07-29T05:41:10;60.43;;;55.93;;
10248;SDS011;5169;50.560;9.714;2023-07-29T05:43:37;71.30;;;66.03;;
10248;SDS011;5169;50.560;9.714;2023-07-29T05:46:03;63.90;;;59.50;;
10248;SDS011;5169;50.560;9.714;2023-07-29T05:48:28;62.60;;;58.13;;
10248;SDS011;5169;50.560;9.714;2023-07-29T05:50:54;62.13;;;57.63;;
10248;SDS011;5169;50.560;9.714;2023-07-29T05:53:20;48.77;;;45.60;;
10248;SDS011;5169;50.560;9.714;2023-07-29T05:55:45;50.77;;;47.40;;
10248;SDS011;5169;50.560;9.714;2023-07-29T05:58:11;61.60;;;57.20;;
10248;SDS011;5169;50.560;9.714;2023-07-29T06:00:36;57.37;;;53.37;;
10248;SDS011;5169;50.560;9.714;2023-07-29T06:03:04;51.30;;;47.80;;
10248;SDS011;5169;50.560;9.714;2023-07-29T06:05:29;50.27;;;47.00;;
10248;SDS011;5169;50.560;9.714;2023-07-29T06:07:55;52.17;;;48.57;;
10248;SDS011;5169;50.560;9.714;2023-07-29T06:10:21;49.03;;;45.83;;
10248;SDS011;5169;50.560;9.714;2023-07-29T06:12:47;39.83;;;37.37;;
10248;SDS011;5169;50.560;9.714;2023-07-29T06:15:12;36.00;;;33.87;;
10248;SDS011;5169;50.560;9.714;2023-07-29T06:17:38;43.07;;;40.37;;
10248;SDS011;5169;50.560;9.714;2023-07-29T06:20:08;46.67;;;43.77;;
10248;SDS011;5169;50.560;9.714;2023-07-29T06:22:34;35.90;;;33.73;;
10248;SDS011;5169;50.560;9.714;2023-07-29T06:25:05;44.27;;;41.47;;
10248;SDS011;5169;50.560;9.714;2023-07-29T06:27:33;48.10;;;45.00;;
10248;SDS011;5169;50.560;9.714;2023-07-29T06:29:59;36.43;;;34.23;;
10248;SDS011;5169;50.560;9.714;2023-07-29T06:32:27;36.63;;;34.53;;
10248;SDS011;5169;50.560;9.714;2023-07-29T06:34:52;34.60;;;32.63;;
10248;SDS011;5169;50.560;9.714;2023-07-29T06:37:19;36.13;;;34.03;;
10248;SDS011;5169;50.560;9.714;2023-07-29T06:39:47;41.30;;;38.83;;
10248;SDS011;5169;50.560;9.714;2023-07-29T06:42:19;41.97;;;39.40;;
10248;SDS011;5169;50.560;9.714;2023-07-29T06:44:47;42.00;;;39.47;;
10248;SDS011;5169;50.560;9.714;2023-07-29T06:47:19;49.97;;;46.70;;
10248;SDS011;5169;50.560;9.714;2023-07-29T06:49:45;33.60;;;31.63;;
10248;SDS011;5169;50.560;9.714;2023-07-29T06:52:11;42.67;;;39.87;;
10248;SDS011;5169;50.560;9.714;2023-07-29T06:54:41;48.43;;;45.23;;
10248;SDS011;5169;50.560;9.714;2023-07-29T06:57:06;50.67;;;47.27;;
10248;SDS011;5169;50.560;9.714;2023-07-29T06:59:33;42.63;;;40.00;;
10248;SDS011;5169;50.560;9.714;2023-07-29T07:01:58;36.93;;;34.67;;
10248;SDS011;5169;50.560;9.714;2023-07-29T07:04:25;52.23;;;48.73;;
10248;SDS011;5169;50.560;9.714;2023-07-29T07:06:56;41.97;;;39.40;;
10248;SDS011;5169;50.560;9.714;2023-07-29T07:09:24;45.10;;;42.13;;
10248;SDS011;5169;50.560;9.714;2023-07-29T07:11:59;47.73;;;44.57;;
10248;SDS011;5169;50.560;9.714;2023-07-29T07:14:25;50.33;;;47.10;;
10248;SDS011;5169;50.560;9.714;2023-07-29T07:16:57;48.97;;;45.83;;
10248;SDS011;5169;50.560;9.714;2023-07-29T07:19:22;55.47;;;51.77;;
10248;SDS011;5169;50.560;9.714;2023-07-29T07:21:50;48.93;;;45.80;;
10248;SDS011;5169;50.560;9.714;2023-07-29T07:24:26;58.57;;;54.37;;
10248;SDS011;5169;50.560;9.714;2023-07-29T07:26:56;56.87;;;53.03;;
10248;SDS011;5169;50.560;9.714;2023-07-29T07:29:22;42.60;;;39.90;;
10248;SDS011;5169;50.560;9.714;2023-07-29T07:31:51;50.23;;;46.97;;
10248;SDS011;5169;50.560;9.714;2023-07-29T07:34:24;52.60;;;49.10;;
10248;SDS011;5169;50.560;9.714;2023-07-29T07:36:52;50.87;;;47.57;;
10248;SDS011;5169;50.560;9.714;2023-07-29T07:39:17;49.40;;;46.10;;
10248;SDS011;5169;50.560;9.714;2023-07-29T07:41:46;50.57;;;47.27;;
10248;SDS011;5169;50.560;9.714;2023-07-29T07:44:12;32.40;;;30.53;;
10248;SDS011;5169;50.560;9.714;2023-07-29T07:46:40;25.70;;;24.27;;
10248;SDS011;5169;50.560;9.714;2023-07-29T07:49:12;28.77;;;27.13;;
10248;SDS011;5169;50.560;9.714;2023-07-29T07:51:39;30.93;;;29.20;;
10248;SDS011;5169;50.560;9.714;2023-07-29T07:54:04;35.60;;;33.43;;
10248;SDS011;5169;50.560;9.714;2023-07-29T07:56:30;36.50;;;34.37;;
10248;SDS011;5169;50.560;9.714;2023-07-29T07:58:59;37.27;;;35.10;;
10248;SDS011;5169;50.560;9.714;2023-07-29T08:01:25;43.47;;;40.60;;
10248;SDS011;5169;50.560;9.714;2023-07-29T08:03:51;38.07;;;35.70;;
10248;SDS011;5169;50.560;9.714;2023-07-29T08:06:16;33.87;;;31.70;;
10248;SDS011;5169;50.560;9.714;2023-07-29T08:08:42;42.60;;;39.80;;
10248;SDS011;5169;50.560;9.714;2023-07-29T08:11:13;38.40;;;36.07;;
10248;SDS011;5169;50.560;9.714;2023-07-29T08:13:39;35.17;;;33.13;;
10248;SDS011;5169;50.560;9.714;2023-07-29T08:16:04;35.13;;;32.97;;
10248;SDS011;5169;50.560;9.714;2023-07-29T08:18:35;44.30;;;41.53;;
10248;SDS011;5169;50.560;9.714;2023-07-29T08:21:06;43.77;;;41.00;;
10248;SDS011;5169;50.560;9.714;2023-07-29T08:23:41;38.33;;;35.90;;
10248;SDS011;5169;50.560;9.714;2023-07-29T08:26:07;33.30;;;31.37;;
10248;SDS011;5169;50.560;9.714;2023-07-29T08:28:39;40.33;;;37.83;;
10248;SDS011;5169;50.560;9.714;2023-07-29T08:31:05;47.73;;;44.57;;
10248;SDS011;5169;50.560;9.714;2023-07-29T08:33:39;37.20;;;34.83;;
10248;SDS011;5169;50.560;9.714;2023-07-29T08:36:04;37.57;;;35.13;;
10248;SDS011;5169;50.560;9.714;2023-07-29T08:38:30;46.47;;;43.40;;
10248;SDS011;5169;50.560;9.714;2023-07-29T08:41:13;43.80;;;40.90;;
10248;SDS011;5169;50.560;9.714;2023-07-29T08:46:45;30.63;;;28.67;;
10248;SDS011;5169;50.560;9.714;2023-07-29T08:49:15;45.30;;;42.30;;
10248;SDS011;5169;50.560;9.714;2023-07-29T08:51:53;50.00;;;46.83;;
10248;SDS011;5169;50.560;9.714;2023-07-29T08:54:19;35.10;;;33.07;;
10248;SDS011;5169;50.560;9.714;2023-07-29T08:56:44;43.67;;;41.07;;
10248;SDS011;5169;50.560;9.714;2023-07-29T08:59:18;47.07;;;43.97;;
10248;SDS011;5169;50.560;9.714;2023-07-29T09:01:45;27.30;;;25.73;;
10248;SDS011;5169;50.560;9.714;2023-07-29T09:04:14;34.50;;;32.43;;
10248;SDS011;5169;50.560;9.714;2023-07-29T09:06:43;34.57;;;32.60;;
10248;SDS011;5169;50.560;9.714;2023-07-29T09:09:09;40.43;;;38.17;;
10248;SDS011;5169;50.560;9.714;2023-07-29T09:11:42;30.40;;;28.50;;
10248;SDS011;5169;50.560;9.714;2023-07-29T09:14:14;46.27;;;43.40;;
10248;SDS011;5169;50.560;9.714;2023-07-29T09:16:39;30.77;;;29.10;;
10248;SDS011;5169;50.560;9.714;2023-07-29T09:19:06;32.70;;;30.67;;
10248;SDS011;5169;50.560;9.714;2023-07-29T09:21:39;42.80;;;40.27;;
10248;SDS011;5169;50.560;9.714;2023-07-29T09:24:08;36.87;;;34.70;;
10248;SDS011;5169;50.560;9.714;2023-07-29T09:26:38;35.07;;;33.10;;
10248;SDS011;5169;50.560;9.714;2023-07-29T09:29:15;27.83;;;26.27;;
10248;SDS011;5169;50.560;9.714;2023-07-29T09:31:43;24.07;;;22.77;;
10248;SDS011;5169;50.560;9.714;2023-07-29T09:34:16;21.07;;;19.87;;
10248;SDS011;5169;50.560;9.714;2023-07-29T09:36:44;26.97;;;25.47;;
10248;SDS011;5169;50.560;9.714;2023-07-29T09:39:17;26.60;;;25.23;;
10248;SDS011;5169;50.560;9.714;2023-07-29T09:41:51;24.40;;;22.97;;
10248;SDS011;5169;50.560;9.714;2023-07-29T09:44:19;17.93;;;16.97;;
10248;SDS011;5169;50.560;9.714;2023-07-29T09:46:46;36.00;;;34.03;;
10248;SDS011;5169;50.560;9.714;2023-07-29T09:49:17;27.07;;;25.63;;
10248;SDS011;5169;50.560;9.714;2023-07-29T09:51:45;28.30;;;26.70;;
10248;SDS011;5169;50.560;9.714;2023-07-29T09:54:20;26.13;;;24.67;;
10248;SDS011;5169;50.560;9.714;2023-07-29T09:56:46;22.33;;;21.17;;
10248;SDS011;5169;50.560;9.714;2023-07-29T09:59:15;23.67;;;22.43;;
10248;SDS011;5169;50.560;9.714;2023-07-29T10:01:44;36.70;;;34.77;;
10248;SDS011;5169;50.560;9.714;2023-07-29T10:04:10;23.70;;;22.43;;
10248;SDS011;5169;50.560;9.714;2023-07-29T10:06:38;17.50;;;16.53;;
10248;SDS011;5169;50.560;9.714;2023-07-29T10:09:16;14.37;;;13.60;;
10248;SDS011;5169;50.560;9.714;2023-07-29T10:11:45;23.77;;;22.50;;
10248;SDS011;5169;50.560;9.714;2023-07-29T10:14:21;28.87;;;27.33;;
10248;SDS011;5169;50.560;9.714;2023-07-29T10:16:50;30.20;;;28.43;;
10248;SDS011;5169;50.560;9.714;2023-07-29T10:19:16;19.87;;;18.87;;
10248;SDS011;5169;50.560;9.714;2023-07-29T10:21:46;26.00;;;24.57;;
10248;SDS011;5169;50.560;9.714;2023-07-29T10:24:15;23.77;;;22.40;;
10248;SDS011;5169;50.560;9.714;2023-07-29T10:27:00;26.03;;;24.67;;
10248;SDS011;5169;50.560;9.714;2023-07-29T10:29:37;29.13;;;27.63;;
10248;SDS011;5169;50.560;9.714;2023-07-29T10:32:11;30.87;;;29.17;;
10248;SDS011;5169;50.560;9.714;2023-07-29T10:34:37;32.17;;;30.43;;
10248;SDS011;5169;50.560;9.714;2023-07-29T10:37:03;26.93;;;25.50;;
10248;SDS011;5169;50.560;9.714;2023-07-29T10:39:39;25.43;;;24.00;;
10248;SDS011;5169;50.560;9.714;2023-07-29T10:42:14;19.10;;;18.07;;
10248;SDS011;5169;50.560;9.714;2023-07-29T10:49:46;20.83;;;19.63;;
10248;SDS011;5169;50.560;9.714;2023-07-29T10:55:03;37.07;;;34.90;;
10248;SDS011;5169;50.560;9.714;2023-07-29T10:57:35;32.13;;;30.43;;
10248;SDS011;5169;50.560;9.714;2023-07-29T11:00:08;23.07;;;21.83;;
10248;SDS011;5169;50.560;9.714;2023-07-29T11:02:37;16.90;;;16.00;;
10248;SDS011;5169;50.560;9.714;2023-07-29T11:05:16;34.37;;;32.43;;
10248;SDS011;5169;50.560;9.714;2023-07-29T11:07:51;18.53;;;17.60;;
10248;SDS011;5169;50.560;9.714;2023-07-29T11:10:21;12.97;;;12.37;;
10248;SDS011;5169;50.560;9.714;2023-07-29T11:12:48;19.83;;;18.63;;
10248;SDS011;5169;50.560;9.714;2023-07-29T11:15:24;21.73;;;20.63;;
10248;SDS011;5169;50.560;9.714;2023-07-29T11:17:53;18.60;;;17.67;;
10248;SDS011;5169;50.560;9.714;2023-07-29T11:20:26;15.27;;;14.13;;
10248;SDS011;5169;50.560;9.714;2023-07-29T11:22:58;15.20;;;14.40;;
10248;SDS011;5169;50.560;9.714;2023-07-29T11:25:33;12.90;;;12.07;;
10248;SDS011;5169;50.560;9.714;2023-07-29T11:27:59;23.37;;;22.10;;
10248;SDS011;5169;50.560;9.714;2023-07-29T11:30:25;18.10;;;17.03;;
10248;SDS011;5169;50.560;9.714;2023-07-29T11:32:57;13.37;;;12.67;;
10248;SDS011;5169;50.560;9.714;2023-07-29T11:35:23;12.00;;;11.23;;
10248;SDS011;5169;50.560;9.714;2023-07-29T11:37:50;14.83;;;13.87;;
10248;SDS011;5169;50.560;9.714;2023-07-29T11:40:17;17.23;;;16.20;;
10248;SDS011;5169;50.560;9.714;2023-07-29T11:42:47;17.57;;;16.60;;
10248;SDS011;5169;50.560;9.714;2023-07-29T11:45:17;10.23;;;9.63;;
10248;SDS011;5169;50.560;9.714;2023-07-29T11:47:49;11.00;;;10.33;;
10248;SDS011;5169;50.560;9.714;2023-07-29T11:50:15;17.40;;;16.50;;
10248;SDS011;5169;50.560;9.714;2023-07-29T11:52:46;15.77;;;14.83;;
10248;SDS011;5169;50.560;9.714;2023-07-29T11:55:14;20.70;;;19.53;;
10248;SDS011;5169;50.560;9.714;2023-07-29T11:57:49;22.57;;;21.50;;
10248;SDS011;5169;50.560;9.714;2023-07-29T12:00:16;26.07;;;24.77;;
10248;SDS011;5169;50.560;9.714;2023-07-29T12:02:47;21.40;;;20.33;;
10248;SDS011;5169;50.560;9.714;2023-07-29T12:05:14;18.17;;;17.23;;
10248;SDS011;5169;50.560;9.714;2023-07-29T12:07:41;25.03;;;23.77;;
10248;SDS011;5169;50.560;9.714;2023-07-29T12:10:14;24.83;;;23.37;;
10248;SDS011;5169;50.560;9.714;2023-07-29T12:12:47;29.83;;;28.30;;
10248;SDS011;5169;50.560;9.714;2023-07-29T12:15:24;28.63;;;27.17;;
10248;SDS011;5169;50.560;9.714;2023-07-29T12:18:02;27.77;;;26.33;;
10248;SDS011;5169;50.560;9.714;2023-07-29T12:20:29;24.37;;;22.80;;
10248;SDS011;5169;50.560;9.714;2023-07-29T12:22:55;23.07;;;21.80;;
10248;SDS011;5169;50.560;9.714;2023-07-29T12:25:28;19.40;;;18.33;;
10248;SDS011;5169;50.560;9.714;2023-07-29T12:28:05;24.73;;;23.00;;
10248;SDS011;5169;50.560;9.714;2023-07-29T12:30:31;22.33;;;21.20;;
10248;SDS011;5169;50.560;9.714;2023-07-29T12:33:28;30.00;;;28.37;;
10248;SDS011;5169;50.560;9.714;2023-07-29T12:36:04;37.07;;;35.13;;
10248;SDS011;5169;50.560;9.714;2023-07-29T12:38:30;38.93;;;36.87;;
10248;SDS011;5169;50.560;9.714;2023-07-29T12:40:56;41.47;;;37.83;;
10248;SDS011;5169;50.560;9.714;2023-07-29T12:43:25;40.60;;;38.13;;
10248;SDS011;5169;50.560;9.714;2023-07-29T12:45:51;48.03;;;44.90;;
10248;SDS011;5169;50.560;9.714;2023-07-29T12:48:17;60.43;;;56.10;;
10248;SDS011;5169;50.560;9.714;2023-07-29T12:50:43;57.17;;;52.97;;
10248;SDS011;5169;50.560;9.714;2023-07-29T12:53:08;52.03;;;47.70;;
10248;SDS011;5169;50.560;9.714;2023-07-29T12:55:40;41.07;;;38.17;;
10248;SDS011;5169;50.560;9.714;2023-07-29T12:58:06;39.43;;;36.73;;
10248;SDS011;5169;50.560;9.714;2023-07-29T13:00:31;47.57;;;44.13;;
10248;SDS011;5169;50.560;9.714;2023-07-29T13:02:57;41.20;;;38.20;;
10248;SDS011;5169;50.560;9.714;2023-07-29T13:05:37;49.57;;;46.10;;
10248;SDS011;5169;50.560;9.714;2023-07-29T13:08:05;27.30;;;25.37;;
10248;SDS011;5169;50.560;9.714;2023-07-29T13:10:40;51.70;;;48.10;;
10248;SDS011;5169;50.560;9.714;2023-07-29T13:13:06;46.20;;;43.17;;
10248;SDS011;5169;50.560;9.714;2023-07-29T13:15:31;40.87;;;38.30;;
10248;SDS011;5169;50.560;9.714;2023-07-29T13:18:07;39.00;;;36.63;;
10248;SDS011;5169;50.560;9.714;2023-07-29T13:20:42;41.17;;;38.63;;
10248;SDS011;5169;50.560;9.714;2023-07-29T13:23:15;36.03;;;33.87;;
10248;SDS011;5169;50.560;9.714;2023-07-29T13:25:43;33.37;;;31.40;;
10248;SDS011;5169;50.560;9.714;2023-07-29T13:28:16;40.57;;;38.13;;
10248;SDS011;5169;50.560;9.714;2023-07-29T13:30:44;37.73;;;35.40;;
10248;SDS011;5169;50.560;9.714;2023-07-29T13:33:16;31.87;;;30.10;;
10248;SDS011;5169;50.560;9.714;2023-07-29T13:35:44;32.13;;;30.10;;
10248;SDS011;5169;50.560;9.714;2023-07-29T13:38:09;46.43;;;43.43;;
10248;SDS011;5169;50.560;9.714;2023-07-29T13:40:39;37.60;;;34.97;;
10248;SDS011;5169;50.560;9.714;2023-07-29T13:43:04;39.07;;;36.73;;
10248;SDS011;5169;50.560;9.714;2023-07-29T13:45:30;39.70;;;37.40;;
10248;SDS011;5169;50.560;9.714;2023-07-29T13:47:58;37.93;;;35.80;;
10248;SDS011;5169;50.560;9.714;2023-07-29T13:50:26;35.00;;;32.83;;
10248;SDS011;5169;50.560;9.714;2023-07-29T13:52:52;37.63;;;35.40;;
10248;SDS011;5169;50.560;9.714;2023-07-29T13:55:17;31.37;;;29.60;;
10248;SDS011;5169;50.560;9.714;2023-07-29T13:57:43;31.57;;;29.77;;
10248;SDS011;5169;50.560;9.714;2023-07-29T14:00:09;35.77;;;33.73;;
10248;SDS011;5169;50.560;9.714;2023-07-29T14:02:34;31.10;;;29.40;;
10248;SDS011;5169;50.560;9.714;2023-07-29T14:05:06;25.17;;;23.67;;
10248;SDS011;5169;50.560;9.714;2023-07-29T14:07:32;30.47;;;28.73;;
10248;SDS011;5169;50.560;9.714;2023-07-29T14:09:58;35.63;;;33.57;;
10248;SDS011;5169;50.560;9.714;2023-07-29T14:12:23;24.97;;;23.50;;
10248;SDS011;5169;50.560;9.714;2023-07-29T14:14:54;29.30;;;27.67;;
10248;SDS011;5169;50.560;9.714;2023-07-29T14:17:27;26.57;;;24.90;;
10248;SDS011;5169;50.560;9.714;2023-07-29T14:19:53;36.87;;;34.83;;
10248;SDS011;5169;50.560;9.714;2023-07-29T14:22:18;34.60;;;32.67;;
10248;SDS011;5169;50.560;9.714;2023-07-29T14:24:44;33.23;;;31.43;;
10248;SDS011;5169;50.560;9.714;2023-07-29T14:27:09;27.00;;;25.23;;
10248;SDS011;5169;50.560;9.714;2023-07-29T14:29:42;39.43;;;37.23;;
10248;SDS011;5169;50.560;9.714;2023-07-29T14:32:08;28.57;;;27.03;;
10248;SDS011;5169;50.560;9.714;2023-07-29T14:34:33;30.87;;;29.23;;
10248;SDS011;5169;50.560;9.714;2023-07-29T14:36:59;37.60;;;35.50;;
10248;SDS011;5169;50.560;9.714;2023-07-29T14:39:30;42.63;;;40.30;;
10248;SDS011;5169;50.560;9.714;2023-07-29T14:41:56;32.67;;;30.63;;
10248;SDS011;5169;50.560;9.714;2023-07-29T14:44:22;28.90;;;27.33;;
10248;SDS011;5169;50.560;9.714;2023-07-29T14:46:47;38.50;;;36.43;;
10248;SDS011;5169;50.560;9.714;2023-07-29T14:49:19;37.57;;;35.50;;
10248;SDS011;5169;50.560;9.714;2023-07-29T14:51:44;39.27;;;37.13;;